Time;durP1;ratioP1;P1;durP2;ratioP2;P2;SDS_P1;SDS_P2;PMS_P1;PMS_P2;Temp;Humidity;BMP_temperature;BMP_pressure;BME280_temperature;BME280_humidity;BME280_pressure;Samples;Min_cycle;Max_cycle;Signal;HPM_P1;HPM_P2
2022/05/13 00:00:55;;;;;;;6.82;4.70;;;;;;;;;;5068624;28;20115;-82
2022/05/13 00:03:20;;;;;;;5.95;5.00;;;;;;;;;;5068612;28;20021;-82
2022/05/13 00:05:45;;;;;;;5.82;4.97;;;;;;;;;;5050652;28;20439;-83
2022/05/13 00:08:11;;;;;;;8.80;4.45;;;;;;;;;;5068586;28;20016;-83
2022/05/13 00:10:36;;;;;;;5.28;4.32;;;;;;;;;;5068544;28;20017;-82
2022/05/13 00:13:02;;;;;;;7.70;4.80;;;;;;;;;;5067174;28;20017;-82
2022/05/13 00:15:29;;;;;;;5.60;5.10;;;;;;;;;;5050493;28;20025;-82
2022/05/13 00:17:55;;;;;;;6.00;5.00;;;;;;;;;;5068567;28;20407;-83
2022/05/13 00:20:21;;;;;;;6.60;4.68;;;;;;;;;;5067198;28;20546;-83
2022/05/13 00:22:50;;;;;;;9.95;4.88;;;;;;;;;;5070683;28;20044;-83
2022/05/13 00:25:17;;;;;;;4.80;4.28;;;;;;;;;;5070677;28;20471;-82
2022/05/13 00:27:42;;;;;;;6.43;4.97;;;;;;;;;;5070768;28;20123;-83
2022/05/13 00:30:09;;;;;;;5.60;5.00;;;;;;;;;;5070761;28;20583;-82
2022/05/13 00:32:35;;;;;;;6.57;4.78;;;;;;;;;;5071923;28;20020;-83
2022/05/13 00:35:00;;;;;;;5.53;5.07;;;;;;;;;;5070693;28;20030;-82
2022/05/13 00:37:26;;;;;;;5.30;4.80;;;;;;;;;;5071925;28;20001;-83
2022/05/13 00:39:51;;;;;;;5.85;5.13;;;;;;;;;;5070468;28;20078;-82
2022/05/13 00:42:17;;;;;;;6.18;5.57;;;;;;;;;;5072111;28;20503;-83
2022/05/13 00:44:43;;;;;;;6.05;5.45;;;;;;;;;;5072086;28;20039;-82
2022/05/13 00:47:10;;;;;;;10.63;5.53;;;;;;;;;;5071919;28;20059;-83
2022/05/13 00:49:38;;;;;;;8.32;5.57;;;;;;;;;;5071829;28;20058;-83
2022/05/13 00:52:04;;;;;;;6.82;5.30;;;;;;;;;;5071737;28;20024;-83
2022/05/13 00:54:30;;;;;;;5.85;5.35;;;;;;;;;;5071576;28;20043;-83
2022/05/13 00:56:56;;;;;;;5.60;5.05;;;;;;;;;;5071575;28;20111;-83
2022/05/13 00:59:23;;;;;;;6.35;5.72;;;;;;;;;;5071425;28;20112;-83
2022/05/13 01:01:48;;;;;;;6.43;5.20;;;;;;;;;;5070251;28;20029;-82
2022/05/13 01:04:15;;;;;;;8.27;5.03;;;;;;;;;;5070361;28;20052;-83
2022/05/13 01:06:47;;;;;;;8.32;5.72;;;;;;;;;;5071575;28;20036;-82
2022/05/13 01:09:12;;;;;;;8.70;5.90;;;;;;;;;;5071306;28;20099;-81
2022/05/13 01:11:38;;;;;;;5.78;5.28;;;;;;;;;;5071429;28;20142;-83
2022/05/13 01:14:24;;;;;;;8.20;5.95;;;;;;;;;;5070500;28;20818;-82
2022/05/13 01:19:34;;;;;;;6.25;5.53;;;;;;;;;;5071647;28;20036;-82
2022/05/13 01:22:19;;;;;;;6.75;5.85;;;;;;;;;;5072090;28;20032;-83
2022/05/13 01:24:45;;;;;;;6.90;5.95;;;;;;;;;;5072277;28;20528;-83
2022/05/13 01:27:10;;;;;;;8.05;5.72;;;;;;;;;;5071832;28;20162;-83
2022/05/13 01:29:36;;;;;;;7.63;6.43;;;;;;;;;;5070787;28;20043;-83
2022/05/13 01:32:01;;;;;;;6.03;5.43;;;;;;;;;;5069513;28;20117;-83
2022/05/13 01:34:26;;;;;;;6.47;5.72;;;;;;;;;;5070022;28;20147;-81
2022/05/13 01:36:52;;;;;;;9.00;5.10;;;;;;;;;;5070742;28;20047;-83
2022/05/13 01:39:17;;;;;;;7.57;5.93;;;;;;;;;;5052659;28;20032;-82
2022/05/13 01:41:43;;;;;;;6.55;5.95;;;;;;;;;;5069090;28;20036;-83
2022/05/13 01:44:08;;;;;;;8.48;6.03;;;;;;;;;;5069221;28;20033;-83
2022/05/13 01:46:33;;;;;;;6.32;5.63;;;;;;;;;;5069085;28;20127;-82
2022/05/13 01:48:59;;;;;;;6.78;6.05;;;;;;;;;;5069076;28;20121;-83
2022/05/13 01:51:25;;;;;;;10.43;6.53;;;;;;;;;;5070551;28;20028;-82
2022/05/13 01:53:51;;;;;;;7.95;5.78;;;;;;;;;;5069100;28;20008;-83
2022/05/13 01:56:16;;;;;;;6.60;5.88;;;;;;;;;;5068902;28;20031;-83
2022/05/13 01:58:42;;;;;;;6.90;6.28;;;;;;;;;;5069997;28;20572;-82
2022/05/13 02:01:08;;;;;;;7.55;6.15;;;;;;;;;;5068762;28;20038;-83
2022/05/13 02:03:46;;;;;;;6.30;5.75;;;;;;;;;;5068905;28;20009;-83
2022/05/13 02:06:12;;;;;;;7.55;6.00;;;;;;;;;;5070099;28;20043;-82
2022/05/13 02:08:38;;;;;;;6.40;5.50;;;;;;;;;;5070086;28;20526;-83
2022/05/13 02:11:04;;;;;;;8.65;6.38;;;;;;;;;;5070023;28;20013;-83
2022/05/13 02:13:30;;;;;;;6.30;5.70;;;;;;;;;;5069930;28;20456;-82
2022/05/13 02:15:55;;;;;;;7.55;6.20;;;;;;;;;;5070215;28;20395;-83
2022/05/13 02:18:21;;;;;;;7.38;6.07;;;;;;;;;;5069795;28;20066;-83
2022/05/13 02:20:47;;;;;;;8.00;6.35;;;;;;;;;;5069867;28;20040;-82
2022/05/13 02:23:12;;;;;;;9.70;7.35;;;;;;;;;;5069708;28;20025;-83
2022/05/13 02:25:38;;;;;;;7.35;5.85;;;;;;;;;;5069647;28;20028;-83
2022/05/13 02:28:03;;;;;;;7.88;6.03;;;;;;;;;;5069905;28;20427;-82
2022/05/13 02:30:29;;;;;;;7.90;7.10;;;;;;;;;;5068282;28;20024;-82
2022/05/13 02:32:55;;;;;;;7.05;6.35;;;;;;;;;;5068221;28;20043;-82
2022/05/13 02:35:20;;;;;;;6.82;5.57;;;;;;;;;;5068168;28;20016;-82
2022/05/13 02:37:46;;;;;;;6.75;6.05;;;;;;;;;;5068100;28;20037;-82
2022/05/13 02:40:12;;;;;;;6.88;5.38;;;;;;;;;;5069593;28;20009;-82
2022/05/13 02:42:37;;;;;;;10.00;6.75;;;;;;;;;;5068114;28;20032;-83
2022/05/13 02:45:03;;;;;;;10.15;6.65;;;;;;;;;;5067900;28;20017;-83
2022/05/13 02:47:29;;;;;;;8.27;7.47;;;;;;;;;;5067985;28;20038;-82
2022/05/13 02:52:38;;;;;;;23.25;8.85;;;;;;;;;;5069595;28;20039;-82
2022/05/13 02:55:04;;;;;;;12.48;8.65;;;;;;;;;;5069205;28;20016;-82
2022/05/13 02:57:29;;;;;;;9.02;7.20;;;;;;;;;;5069130;28;20028;-82
2022/05/13 02:59:55;;;;;;;9.07;8.13;;;;;;;;;;5047802;28;20512;-81
2022/05/13 03:02:21;;;;;;;11.20;7.82;;;;;;;;;;5047830;28;20094;-82
2022/05/13 03:04:46;;;;;;;9.65;7.88;;;;;;;;;;5047858;28;20476;-82
2022/05/13 03:07:12;;;;;;;8.57;7.43;;;;;;;;;;5047780;28;20039;-83
2022/05/13 03:09:37;;;;;;;9.63;7.85;;;;;;;;;;5047856;28;20021;-82
2022/05/13 03:12:03;;;;;;;7.55;6.80;;;;;;;;;;5048989;28;20100;-83
2022/05/13 03:14:28;;;;;;;7.95;7.05;;;;;;;;;;5047280;28;20039;-82
2022/05/13 03:16:53;;;;;;;10.68;8.77;;;;;;;;;;5031023;28;20140;-82
2022/05/13 03:19:19;;;;;;;9.23;7.63;;;;;;;;;;5047538;28;20036;-82
2022/05/13 03:21:44;;;;;;;8.10;7.30;;;;;;;;;;5047639;28;20041;-83
2022/05/13 03:24:10;;;;;;;12.00;7.63;;;;;;;;;;5047569;28;20029;-83
2022/05/13 03:26:35;;;;;;;12.48;8.25;;;;;;;;;;5047547;28;20515;-82
2022/05/13 03:29:00;;;;;;;8.68;7.20;;;;;;;;;;5048934;28;20092;-82
2022/05/13 03:31:26;;;;;;;7.85;7.15;;;;;;;;;;5048818;28;20035;-83
2022/05/13 03:33:51;;;;;;;8.38;7.13;;;;;;;;;;5047346;28;20017;-83
2022/05/13 03:36:17;;;;;;;8.27;6.63;;;;;;;;;;5047571;28;20492;-82
2022/05/13 03:38:42;;;;;;;12.57;6.88;;;;;;;;;;5047507;28;20033;-82
2022/05/13 03:41:09;;;;;;;9.07;7.57;;;;;;;;;;5047429;28;20094;-82
2022/05/13 03:43:34;;;;;;;8.77;7.07;;;;;;;;;;5048779;28;20025;-83
2022/05/13 03:45:59;;;;;;;9.43;7.82;;;;;;;;;;5048638;28;20025;-82
2022/05/13 03:48:25;;;;;;;8.38;7.32;;;;;;;;;;5030762;28;20460;-81
2022/05/13 03:50:50;;;;;;;9.13;7.68;;;;;;;;;;5048608;28;20446;-82
2022/05/13 03:53:16;;;;;;;11.13;7.53;;;;;;;;;;5048476;28;20033;-82
2022/05/13 03:55:41;;;;;;;9.02;8.10;;;;;;;;;;5047437;28;20017;-83
2022/05/13 03:58:10;;;;;;;8.77;6.90;;;;;;;;;;5054982;28;20063;-83
2022/05/13 04:00:35;;;;;;;11.02;7.70;;;;;;;;;;5072431;28;20040;-83
2022/05/13 04:03:01;;;;;;;7.60;6.85;;;;;;;;;;5072555;28;20391;-83
2022/05/13 04:10:54;;;;;;;9.27;7.20;;;;;;;;;;5072403;28;20120;-83
2022/05/13 04:16:06;;;;;;;9.60;8.60;;;;;;;;;;5072551;28;20101;-82
2022/05/13 04:18:33;;;;;;;10.02;8.57;;;;;;;;;;5070864;28;20406;-83
2022/05/13 04:20:58;;;;;;;10.73;9.52;;;;;;;;;;5072067;28;20043;-82
2022/05/13 04:23:24;;;;;;;8.95;8.15;;;;;;;;;;5070679;28;20403;-83
2022/05/13 04:25:49;;;;;;;9.35;7.82;;;;;;;;;;5070799;28;20170;-83
2022/05/13 04:28:15;;;;;;;9.23;8.32;;;;;;;;;;5071991;28;20013;-83
2022/05/13 04:30:40;;;;;;;9.15;8.20;;;;;;;;;;5072064;28;20479;-83
2022/05/13 04:33:05;;;;;;;10.55;8.45;;;;;;;;;;5070830;28;20661;-83
2022/05/13 04:35:31;;;;;;;10.52;8.23;;;;;;;;;;5053962;28;20035;-83
2022/05/13 04:37:57;;;;;;;11.55;8.77;;;;;;;;;;5072424;28;20021;-82
2022/05/13 04:40:22;;;;;;;11.13;8.75;;;;;;;;;;5071836;28;20063;-82
2022/05/13 04:42:50;;;;;;;10.75;8.82;;;;;;;;;;5071812;28;20029;-83
2022/05/13 04:45:26;;;;;;;12.15;9.05;;;;;;;;;;5071881;28;20016;-83
2022/05/13 04:50:39;;;;;;;10.25;8.68;;;;;;;;;;5071704;28;20036;-83
2022/05/13 04:53:06;;;;;;;13.65;10.02;;;;;;;;;;5071648;28;20021;-83
2022/05/13 04:55:31;;;;;;;11.38;9.68;;;;;;;;;;5070364;28;20077;-83
2022/05/13 04:57:57;;;;;;;12.95;10.45;;;;;;;;;;5071430;28;20044;-82
2022/05/13 05:00:22;;;;;;;13.88;10.93;;;;;;;;;;5071485;28;20016;-81
2022/05/13 05:02:47;;;;;;;13.77;11.88;;;;;;;;;;5069994;28;20036;-82
2022/05/13 05:05:13;;;;;;;14.20;11.40;;;;;;;;;;5070151;28;20028;-83
2022/05/13 05:07:38;;;;;;;13.00;11.23;;;;;;;;;;5053378;28;20024;-84
2022/05/13 05:10:04;;;;;;;18.77;11.50;;;;;;;;;;5071481;28;20024;-83
2022/05/13 05:12:29;;;;;;;11.45;10.45;;;;;;;;;;5071285;28;20483;-82
2022/05/13 05:14:54;;;;;;;13.50;11.88;;;;;;;;;;5071409;28;20788;-83
2022/05/13 05:17:20;;;;;;;12.30;11.05;;;;;;;;;;5071115;28;20035;-83
2022/05/13 05:19:45;;;;;;;17.00;13.48;;;;;;;;;;5069899;28;20065;-83
2022/05/13 05:22:11;;;;;;;14.05;11.65;;;;;;;;;;5069695;28;20044;-82
2022/05/13 05:24:36;;;;;;;14.05;12.73;;;;;;;;;;5071265;28;20399;-82
2022/05/13 05:27:01;;;;;;;16.80;11.65;;;;;;;;;;5069842;28;20032;-79
2022/05/13 05:29:27;;;;;;;13.52;12.05;;;;;;;;;;5069795;28;20025;-83
2022/05/13 05:31:52;;;;;;;12.10;10.90;;;;;;;;;;5052828;28;20032;-83
2022/05/13 05:34:18;;;;;;;14.10;10.60;;;;;;;;;;5069743;28;20016;-82
2022/05/13 05:36:43;;;;;;;14.55;10.13;;;;;;;;;;5069600;28;20134;-83
2022/05/13 05:39:10;;;;;;;11.13;9.88;;;;;;;;;;5069649;28;20094;-83
2022/05/13 05:41:35;;;;;;;10.52;9.25;;;;;;;;;;5070766;28;20032;-83
2022/05/13 05:44:01;;;;;;;9.48;8.55;;;;;;;;;;5069383;28;20028;-83
2022/05/13 05:46:26;;;;;;;10.00;9.05;;;;;;;;;;5070782;28;20095;-82
2022/05/13 05:48:51;;;;;;;7.82;7.13;;;;;;;;;;5069341;28;20020;-83
2022/05/13 05:51:17;;;;;;;9.52;8.57;;;;;;;;;;5069452;28;20033;-83
2022/05/13 05:59:10;;;;;;;8.18;6.50;;;;;;;;;;5071511;28;20054;-83
2022/05/13 06:01:36;;;;;;;6.60;6.00;;;;;;;;;;5070715;28;20111;-83
2022/05/13 06:04:02;;;;;;;8.98;7.18;;;;;;;;;;5071581;28;20095;-83
2022/05/13 06:06:27;;;;;;;7.03;6.43;;;;;;;;;;5069575;28;20104;-82
2022/05/13 06:08:57;;;;;;;7.93;5.80;;;;;;;;;;5069169;28;20013;-83
2022/05/13 06:11:23;;;;;;;6.88;6.28;;;;;;;;;;5070014;28;20475;-83
2022/05/13 06:13:53;;;;;;;6.07;5.40;;;;;;;;;;5070048;28;20031;-82
2022/05/13 06:16:19;;;;;;;7.95;5.32;;;;;;;;;;5068539;28;20067;-82
2022/05/13 06:18:45;;;;;;;7.53;5.47;;;;;;;;;;5069928;28;20063;-81
2022/05/13 06:21:10;;;;;;;7.57;5.53;;;;;;;;;;5067965;28;20037;-82
2022/05/13 06:23:36;;;;;;;5.78;4.90;;;;;;;;;;5069694;28;20024;-81
2022/05/13 06:26:01;;;;;;;6.03;4.97;;;;;;;;;;5068369;28;20109;-83
2022/05/13 06:28:28;;;;;;;5.15;4.28;;;;;;;;;;5069616;28;20099;-82
2022/05/13 06:30:54;;;;;;;4.65;4.20;;;;;;;;;;5069646;28;20032;-82
2022/05/13 06:33:19;;;;;;;4.28;3.88;;;;;;;;;;5069631;28;20035;-83
2022/05/13 06:35:45;;;;;;;4.90;4.43;;;;;;;;;;5069581;28;20017;-81
2022/05/13 06:38:20;;;;;;;6.20;3.97;;;;;;;;;;5069499;28;20025;-82
2022/05/13 06:40:49;;;;;;;16.17;4.22;;;;;;;;;;5069351;28;20108;-82
2022/05/13 06:43:14;;;;;;;4.70;3.60;;;;;;;;;;5069517;28;20329;-82
2022/05/13 06:45:41;;;;;;;4.22;3.83;;;;;;;;;;5069441;28;20467;-82
2022/05/13 06:48:07;;;;;;;5.03;3.63;;;;;;;;;;5069354;28;20092;-82
2022/05/13 06:50:32;;;;;;;4.32;3.92;;;;;;;;;;5069375;28;20108;-81
2022/05/13 06:52:57;;;;;;;6.45;3.65;;;;;;;;;;5069248;28;20468;-82
2022/05/13 06:55:23;;;;;;;4.35;3.45;;;;;;;;;;5051240;28;20016;-83
2022/05/13 06:57:49;;;;;;;4.75;4.18;;;;;;;;;;5068928;28;20009;-83
2022/05/13 07:00:14;;;;;;;4.90;4.05;;;;;;;;;;5069221;28;20016;-81
2022/05/13 07:02:40;;;;;;;27.70;4.97;;;;;;;;;;5069213;28;20205;-82
2022/05/13 07:05:08;;;;;;;9.18;4.15;;;;;;;;;;5069030;28;20479;-82
2022/05/13 07:07:34;;;;;;;6.90;3.88;;;;;;;;;;5069128;28;20080;-83
2022/05/13 07:09:59;;;;;;;4.55;4.05;;;;;;;;;;5051209;28;20029;-82
2022/05/13 07:12:25;;;;;;;4.07;3.78;;;;;;;;;;5069177;28;20020;-82
2022/05/13 07:14:50;;;;;;;4.88;4.47;;;;;;;;;;5067734;28;20016;-83
2022/05/13 07:17:15;;;;;;;6.13;4.18;;;;;;;;;;5067708;28;20027;-83
2022/05/13 07:19:41;;;;;;;4.93;3.85;;;;;;;;;;5069006;28;20016;-82
2022/05/13 07:22:06;;;;;;;7.13;4.90;;;;;;;;;;5067621;28;20101;-84
2022/05/13 07:24:32;;;;;;;5.85;4.28;;;;;;;;;;5068933;28;20020;-83
2022/05/13 07:26:58;;;;;;;7.43;4.32;;;;;;;;;;5068874;28;20025;-83
2022/05/13 07:29:23;;;;;;;4.20;3.90;;;;;;;;;;5068937;28;20020;-83
2022/05/13 07:31:49;;;;;;;9.43;3.75;;;;;;;;;;5068376;28;20032;-83
2022/05/13 07:34:14;;;;;;;6.22;3.92;;;;;;;;;;5073059;28;20165;-83
2022/05/13 07:36:39;;;;;;;6.82;3.88;;;;;;;;;;5071644;28;20079;-82
2022/05/13 07:41:49;;;;;;;4.80;3.95;;;;;;;;;;5072973;28;20117;-83
2022/05/13 07:44:14;;;;;;;9.55;4.20;;;;;;;;;;5072903;28;20060;-83
2022/05/13 07:46:40;;;;;;;6.40;4.00;;;;;;;;;;5072721;28;20027;-83
2022/05/13 07:49:06;;;;;;;5.75;3.63;;;;;;;;;;5072830;28;20550;-83
2022/05/13 07:51:32;;;;;;;4.35;3.83;;;;;;;;;;5072738;28;20102;-83
2022/05/13 07:53:57;;;;;;;6.18;3.38;;;;;;;;;;5072634;28;20056;-84
2022/05/13 07:56:22;;;;;;;3.92;3.63;;;;;;;;;;5072748;28;20029;-83
2022/05/13 07:58:49;;;;;;;11.25;3.80;;;;;;;;;;5072354;28;20483;-83
2022/05/13 08:01:15;;;;;;;4.57;4.07;;;;;;;;;;5071223;28;20059;-83
2022/05/13 08:03:43;;;;;;;4.20;3.40;;;;;;;;;;5072486;28;20602;-82
2022/05/13 08:06:09;;;;;;;8.10;3.92;;;;;;;;;;5071050;28;20033;-85
2022/05/13 08:08:40;;;;;;;3.58;3.28;;;;;;;;;;5072421;28;20071;-82
2022/05/13 08:11:07;;;;;;;4.43;3.78;;;;;;;;;;5072383;28;20012;-83
2022/05/13 08:13:34;;;;;;;6.80;3.65;;;;;;;;;;5071027;28;20024;-82
2022/05/13 08:16:01;;;;;;;4.93;3.75;;;;;;;;;;5072369;28;20025;-82
2022/05/13 08:18:26;;;;;;;4.88;3.85;;;;;;;;;;5072257;28;20035;-82
2022/05/13 08:20:52;;;;;;;7.90;3.47;;;;;;;;;;5072192;28;20036;-83
2022/05/13 08:23:17;;;;;;;5.18;3.70;;;;;;;;;;5072157;28;20015;-84
2022/05/13 08:25:44;;;;;;;6.47;4.15;;;;;;;;;;5072230;28;20024;-84
2022/05/13 08:28:10;;;;;;;7.85;3.75;;;;;;;;;;5072115;28;20046;-83
2022/05/13 08:30:36;;;;;;;6.22;3.90;;;;;;;;;;5072031;28;20059;-82
2022/05/13 08:33:02;;;;;;;3.63;3.30;;;;;;;;;;5072061;28;20052;-83
2022/05/13 08:35:28;;;;;;;6.82;4.15;;;;;;;;;;5071913;28;20052;-82
2022/05/13 08:37:54;;;;;;;4.13;3.50;;;;;;;;;;5073893;28;20483;-83
2022/05/13 08:40:38;;;;;;;5.70;3.03;;;;;;;;;;5071788;28;20031;-83
2022/05/13 08:43:08;;;;;;;6.93;2.95;;;;;;;;;;5071519;28;20103;-83
2022/05/13 08:45:34;;;;;;;10.70;3.38;;;;;;;;;;5071732;28;20052;-84
2022/05/13 08:48:00;;;;;;;5.47;2.78;;;;;;;;;;5071848;28;20063;-85
2022/05/13 08:50:32;;;;;;;8.35;3.10;;;;;;;;;;5070568;28;20526;-83
2022/05/13 08:53:06;;;;;;;5.95;3.13;;;;;;;;;;5070315;28;20024;-83
2022/05/13 08:55:40;;;;;;;4.45;3.17;;;;;;;;;;5071735;28;20025;-83
2022/05/13 08:58:08;;;;;;;5.10;2.97;;;;;;;;;;5071329;28;20120;-84
2022/05/13 09:00:44;;;;;;;3.30;2.97;;;;;;;;;;5071525;28;20031;-85
2022/05/13 09:03:34;;;;;;;3.67;3.33;;;;;;;;;;5071464;28;20048;-84
2022/05/13 09:06:11;;;;;;;3.92;3.03;;;;;;;;;;5071584;28;20047;-84
2022/05/13 09:08:36;;;;;;;3.10;2.90;;;;;;;;;;5071409;28;20025;-78
2022/05/13 09:11:01;;;;;;;3.78;2.78;;;;;;;;;;5071321;28;20070;-84
2022/05/13 09:13:47;;;;;;;4.00;3.05;;;;;;;;;;5071256;28;20494;-84
2022/05/13 09:16:14;;;;;;;4.50;2.92;;;;;;;;;;5069586;28;20044;-86
2022/05/13 09:18:54;;;;;;;3.80;3.10;;;;;;;;;;5071337;28;20019;-82
2022/05/13 09:21:20;;;;;;;3.40;2.78;;;;;;;;;;5069846;28;20134;-84
2022/05/13 09:23:46;;;;;;;4.40;3.03;;;;;;;;;;5069903;28;20024;-86
2022/05/13 09:26:13;;;;;;;4.22;3.00;;;;;;;;;;5071160;28;20101;-85
2022/05/13 09:28:58;;;;;;;3.50;3.08;;;;;;;;;;5071002;28;20020;-83
2022/05/13 09:31:26;;;;;;;5.70;2.70;;;;;;;;;;5053090;28;20056;-86
2022/05/13 09:33:52;;;;;;;4.65;2.70;;;;;;;;;;5069663;28;20039;-84
2022/05/13 09:36:23;;;;;;;8.25;2.55;;;;;;;;;;5071033;28;20030;-84
2022/05/13 09:38:53;;;;;;;13.30;3.00;;;;;;;;;;5071105;28;20021;-84
2022/05/13 09:41:24;;;;;;;8.07;2.58;;;;;;;;;;5070763;28;20025;-85
2022/05/13 09:43:51;;;;;;;7.78;2.45;;;;;;;;;;5070766;28;20036;-85
2022/05/13 09:46:20;;;;;;;2.08;1.92;;;;;;;;;;5070727;28;20021;-85
2022/05/13 09:48:59;;;;;;;4.45;2.70;;;;;;;;;;5070643;28;20047;-82
2022/05/13 09:51:35;;;;;;;3.42;2.50;;;;;;;;;;5069130;28;20024;-85
2022/05/13 09:54:06;;;;;;;3.15;2.30;;;;;;;;;;5070138;28;20063;-85
2022/05/13 09:56:36;;;;;;;3.42;2.38;;;;;;;;;;5070080;28;20101;-88
2022/05/13 09:59:05;;;;;;;3.17;2.60;;;;;;;;;;5068741;28;20110;-84
2022/05/13 10:01:30;;;;;;;3.88;2.22;;;;;;;;;;5052283;28;20040;-85
2022/05/13 10:04:01;;;;;;;2.40;2.20;;;;;;;;;;5070332;28;20095;-86
2022/05/13 10:06:30;;;;;;;2.70;2.40;;;;;;;;;;5070251;28;20123;-84
2022/05/13 10:13:57;;;;;;;10.10;2.65;;;;;;;;;;5068810;28;20506;-86
2022/05/13 10:14:29;;;;;;;4.18;2.60;;;;;;;;;;5070314;28;20059;-85
2022/05/13 10:16:57;;;;;;;2.63;2.42;;;;;;;;;;5070155;28;20108;-82
2022/05/13 10:19:34;;;;;;;4.85;2.55;;;;;;;;;;5070043;28;20074;-85
2022/05/13 10:22:12;;;;;;;7.85;2.55;;;;;;;;;;5069816;28;20124;-84
2022/05/13 10:24:56;;;;;;;3.17;2.47;;;;;;;;;;5070047;28;20040;-83
2022/05/13 10:27:24;;;;;;;6.22;2.42;;;;;;;;;;5070006;28;20009;-83
2022/05/13 10:29:52;;;;;;;6.47;2.42;;;;;;;;;;5070501;28;20589;-86
2022/05/13 10:32:36;;;;;;;7.95;2.65;;;;;;;;;;5069661;28;20013;-85
2022/05/13 10:35:04;;;;;;;2.88;2.08;;;;;;;;;;5069598;28;20028;-86
2022/05/13 10:37:34;;;;;;;3.45;2.40;;;;;;;;;;5069547;28;20067;-85
2022/05/13 10:40:02;;;;;;;4.70;2.20;;;;;;;;;;5069569;28;20056;-84
2022/05/13 10:42:37;;;;;;;8.38;2.53;;;;;;;;;;5069414;28;20039;-82
2022/05/13 10:45:07;;;;;;;4.85;2.45;;;;;;;;;;5068207;28;20060;-83
2022/05/13 10:47:54;;;;;;;4.13;2.30;;;;;;;;;;5069693;28;20036;-83
2022/05/13 10:50:25;;;;;;;11.13;2.75;;;;;;;;;;5069833;28;20027;-85
2022/05/13 10:52:56;;;;;;;3.60;2.22;;;;;;;;;;5069825;28;20062;-85
2022/05/13 10:55:25;;;;;;;3.03;2.20;;;;;;;;;;5068302;28;20085;-84
2022/05/13 10:58:02;;;;;;;4.13;2.10;;;;;;;;;;5073598;28;20047;-85
2022/05/13 11:00:44;;;;;;;5.88;2.08;;;;;;;;;;5074302;28;20032;-85
2022/05/13 11:03:16;;;;;;;6.15;2.53;;;;;;;;;;5070499;28;20466;-84
2022/05/13 11:05:53;;;;;;;5.05;2.35;;;;;;;;;;5069110;28;20107;-85
2022/05/13 11:08:36;;;;;;;2.42;2.13;;;;;;;;;;5069366;28;20074;-79
2022/05/13 11:11:13;;;;;;;2.25;2.05;;;;;;;;;;5069128;28;20031;-85
2022/05/13 11:14:02;;;;;;;6.53;2.55;;;;;;;;;;5069142;28;20154;-83
2022/05/13 11:16:27;;;;;;;2.35;2.05;;;;;;;;;;5069041;28;20016;-85
2022/05/13 11:19:07;;;;;;;3.60;2.00;;;;;;;;;;5068999;28;20031;-85
2022/05/13 11:21:45;;;;;;;4.43;1.93;;;;;;;;;;5068892;28;20040;-86
2022/05/13 11:27:10;;;;;;;5.63;2.15;;;;;;;;;;5069235;28;20098;-85
2022/05/13 11:29:44;;;;;;;2.47;2.20;;;;;;;;;;5068868;28;20021;-83
2022/05/13 11:32:16;;;;;;;2.40;2.20;;;;;;;;;;5068953;28;20013;-83
2022/05/13 11:34:49;;;;;;;3.33;2.10;;;;;;;;;;5068778;28;20082;-83
2022/05/13 11:37:15;;;;;;;2.22;2.03;;;;;;;;;;5068946;28;20025;-85
2022/05/13 11:39:53;;;;;;;2.35;1.83;;;;;;;;;;5068853;28;20403;-81
2022/05/13 11:42:27;;;;;;;4.13;2.55;;;;;;;;;;5068731;28;20036;-84
2022/05/13 11:45:09;;;;;;;8.82;2.63;;;;;;;;;;5068859;28;20094;-86
2022/05/13 11:47:40;;;;;;;2.92;1.80;;;;;;;;;;5068862;28;20016;-84
2022/05/13 11:50:06;;;;;;;3.88;2.30;;;;;;;;;;5067494;28;20054;-85
2022/05/13 11:52:34;;;;;;;3.63;2.03;;;;;;;;;;5067335;28;20029;-84
2022/05/13 11:55:18;;;;;;;3.25;2.08;;;;;;;;;;5068840;28;20020;-85
2022/05/13 11:57:48;;;;;;;3.47;2.50;;;;;;;;;;5068534;28;20017;-84
2022/05/13 12:00:35;;;;;;;8.25;2.30;;;;;;;;;;5068814;28;20056;-84
2022/05/13 12:03:03;;;;;;;5.25;2.00;;;;;;;;;;5067333;28;20099;-83
2022/05/13 12:05:33;;;;;;;2.63;2.20;;;;;;;;;;5068733;28;20395;-85
2022/05/13 12:07:58;;;;;;;;;;;;;;;;;;5069062;28;20027;-85
2022/05/13 12:10:29;;;;;;;5.07;1.77;;;;;;;;;;5068697;28;19908;-85
2022/05/13 12:12:58;;;;;;;6.97;2.30;;;;;;;;;;5067189;28;20078;-85
2022/05/13 12:15:36;;;;;;;4.43;2.08;;;;;;;;;;5068419;28;20052;-85
2022/05/13 12:18:05;;;;;;;4.82;1.98;;;;;;;;;;5069471;28;20437;-85
2022/05/13 12:20:36;;;;;;;6.10;2.30;;;;;;;;;;5072453;28;20026;-82
2022/05/13 12:23:07;;;;;;;4.78;2.05;;;;;;;;;;5072269;28;20050;-85
2022/05/13 12:25:33;;;;;;;1.95;1.70;;;;;;;;;;5072200;28;20055;-85
2022/05/13 12:28:03;;;;;;;4.40;2.00;;;;;;;;;;5072069;28;20036;-87
2022/05/13 12:30:32;;;;;;;;;;;;;;;;;;5071126;28;20028;-85
2022/05/13 12:33:17;;;;;;;2.67;2.28;;;;;;;;;;5072062;28;19905;-85
2022/05/13 12:38:27;;;;;;;3.45;2.42;;;;;;;;;;5072219;28;20074;-86
2022/05/13 12:41:16;;;;;;;4.32;2.10;;;;;;;;;;5071714;28;20037;-84
2022/05/13 12:43:47;;;;;;;2.80;2.28;;;;;;;;;;5070980;28;20097;-85
2022/05/13 12:46:15;;;;;;;5.07;2.00;;;;;;;;;;5070572;28;20031;-84
2022/05/13 12:48:59;;;;;;;3.47;2.40;;;;;;;;;;5070413;28;20043;-85
2022/05/13 12:51:31;;;;;;;2.55;2.35;;;;;;;;;;5071789;28;20103;-85
2022/05/13 12:53:57;;;;;;;3.13;2.10;;;;;;;;;;5070664;28;20106;-87
2022/05/13 12:56:29;;;;;;;2.28;2.08;;;;;;;;;;5070525;28;20550;-86
2022/05/13 12:59:16;;;;;;;7.40;2.53;;;;;;;;;;5070284;28;20048;-85
2022/05/13 13:01:46;;;;;;;3.83;2.60;;;;;;;;;;5071491;28;20036;-86
2022/05/13 13:04:14;;;;;;;5.28;3.00;;;;;;;;;;5071668;28;20117;-85
2022/05/13 13:06:44;;;;;;;16.83;4.10;;;;;;;;;;5071592;28;20024;-83
2022/05/13 13:09:09;;;;;;;;;;;;;;;;;;5071826;28;20827;-83
2022/05/13 13:11:42;;;;;;;2.63;2.20;;;;;;;;;;5071444;28;19908;-86
2022/05/13 13:14:11;;;;;;;4.53;2.35;;;;;;;;;;5070024;28;20111;-85
2022/05/13 13:16:52;;;;;;;2.97;2.70;;;;;;;;;;5071334;28;20024;-89
2022/05/13 13:19:17;;;;;;;4.55;2.70;;;;;;;;;;5071029;28;20111;-84
2022/05/13 13:21:43;;;;;;;4.38;3.53;;;;;;;;;;5070973;28;20127;-84
2022/05/13 13:24:13;;;;;;;4.38;3.40;;;;;;;;;;5053020;28;20223;-84
2022/05/13 13:26:38;;;;;;;;;;;;;;;;;;5071371;28;20020;-84
2022/05/13 13:29:05;;;;;;;4.00;2.63;;;;;;;;;;5068750;28;19916;-85
2022/05/13 13:31:31;;;;;;;2.80;2.45;;;;;;;;;;5070454;28;20032;-82
2022/05/13 13:33:57;;;;;;;4.20;2.70;;;;;;;;;;5070807;28;20016;-83
2022/05/13 13:36:24;;;;;;;6.32;3.15;;;;;;;;;;5071239;28;20086;-84
2022/05/13 13:38:51;;;;;;;4.53;3.13;;;;;;;;;;5069524;28;20056;-84
2022/05/13 13:41:23;;;;;;;3.08;2.72;;;;;;;;;;5070680;28;20031;-83
2022/05/13 13:43:52;;;;;;;5.45;2.97;;;;;;;;;;5070682;28;20078;-84
2022/05/13 13:46:22;;;;;;;5.97;3.10;;;;;;;;;;5070662;28;20024;-85
2022/05/13 13:48:50;;;;;;;5.38;2.97;;;;;;;;;;5069323;28;20031;-84
2022/05/13 13:51:17;;;;;;;5.30;3.08;;;;;;;;;;5052560;28;20123;-84
2022/05/13 13:53:43;;;;;;;5.60;2.90;;;;;;;;;;5070474;28;20535;-84
2022/05/13 13:56:11;;;;;;;3.78;2.88;;;;;;;;;;5070395;28;20040;-84
2022/05/13 13:58:45;;;;;;;3.72;3.05;;;;;;;;;;5068759;28;20052;-83
2022/05/13 14:01:17;;;;;;;5.72;3.08;;;;;;;;;;5068883;28;20040;-84
2022/05/13 14:03:43;;;;;;;3.13;2.83;;;;;;;;;;5070179;28;20495;-82
2022/05/13 14:06:12;;;;;;;3.78;3.00;;;;;;;;;;5070107;28;20020;-86
2022/05/13 14:08:39;;;;;;;8.70;3.35;;;;;;;;;;5068477;28;20028;-83
2022/05/13 14:11:14;;;;;;;3.22;2.83;;;;;;;;;;5070007;28;20558;-84
2022/05/13 14:13:41;;;;;;;5.00;3.10;;;;;;;;;;5068654;28;20495;-84
2022/05/13 14:16:11;;;;;;;7.15;3.33;;;;;;;;;;5068561;28;20114;-83
2022/05/13 14:18:37;;;;;;;12.77;3.38;;;;;;;;;;5069932;28;20472;-83
2022/05/13 14:21:13;;;;;;;7.22;3.05;;;;;;;;;;5069891;28;20016;-84
2022/05/13 14:23:39;;;;;;;2.92;2.63;;;;;;;;;;5069814;28;20024;-85
2022/05/13 14:26:06;;;;;;;4.25;2.88;;;;;;;;;;5069906;28;20088;-84
2022/05/13 14:28:33;;;;;;;4.40;3.03;;;;;;;;;;5068430;28;20021;-84
2022/05/13 14:31:11;;;;;;;12.45;3.17;;;;;;;;;;5068453;28;20031;-84
2022/05/13 14:33:44;;;;;;;6.65;2.83;;;;;;;;;;5069903;28;20467;-85
2022/05/13 14:36:10;;;;;;;4.32;2.65;;;;;;;;;;5068269;28;20024;-84
2022/05/13 14:41:25;;;;;;;3.30;2.70;;;;;;;;;;5069362;28;20051;-88
2022/05/13 14:43:51;;;;;;;5.45;2.83;;;;;;;;;;5068183;28;20028;-85
2022/05/13 14:46:23;;;;;;;6.18;3.28;;;;;;;;;;5069460;28;20757;-83
2022/05/13 14:48:49;;;;;;;7.25;3.03;;;;;;;;;;5069443;28;20020;-86
2022/05/13 14:51:19;;;;;;;3.65;2.55;;;;;;;;;;5069323;28;20029;-86
2022/05/13 14:53:56;;;;;;;4.63;3.10;;;;;;;;;;5067858;28;20509;-84
2022/05/13 14:56:22;;;;;;;6.18;3.00;;;;;;;;;;5069212;28;20483;-85
2022/05/13 14:58:53;;;;;;;8.65;3.28;;;;;;;;;;5068989;28;20047;-85
2022/05/13 15:01:23;;;;;;;8.32;3.80;;;;;;;;;;5069115;28;20028;-86
2022/05/13 15:03:50;;;;;;;6.20;3.42;;;;;;;;;;5069171;28;20033;-86
2022/05/13 15:06:28;;;;;;;4.65;2.65;;;;;;;;;;5069547;28;20024;-86
2022/05/13 15:09:12;;;;;;;5.57;2.90;;;;;;;;;;5069090;28;20028;-86
2022/05/13 15:11:37;;;;;;;4.63;2.72;;;;;;;;;;5067749;28;20031;-85
2022/05/13 15:14:06;;;;;;;4.28;3.40;;;;;;;;;;5068863;28;20091;-87
2022/05/13 15:16:32;;;;;;;4.63;3.00;;;;;;;;;;5067871;28;20090;-86
2022/05/13 15:18:57;;;;;;;8.20;3.17;;;;;;;;;;5068986;28;20479;-87
2022/05/13 15:21:23;;;;;;;3.30;3.00;;;;;;;;;;5069015;28;20410;-86
2022/05/13 15:23:48;;;;;;;5.60;3.17;;;;;;;;;;5050865;28;20111;-86